Time;durP1;ratioP1;P1;durP2;ratioP2;P2;SDS_P1;SDS_P2;PMS_P1;PMS_P2;Temp;Humidity;BMP_temperature;BMP_pressure;BME280_temperature;BME280_humidity;BME280_pressure;Samples;Min_cycle;Max_cycle;Signal;HPM_P1;HPM_P2
2023/04/14 00:01:54;;;;;;;77.47;33.92;;;;;;;23.97;61.86;98371.16;4967467;28;20162;-70
2023/04/14 00:04:23;;;;;;;75.25;35.10;;;;;;;23.95;61.46;98377.94;4965256;28;20149;-67
2023/04/14 00:06:55;;;;;;;80.78;34.88;;;;;;;23.93;61.57;98385.56;4966643;28;20521;-69
2023/04/14 00:09:26;;;;;;;73.85;35.97;;;;;;;23.92;61.75;98383.94;4966019;28;20614;-69
2023/04/14 00:11:56;;;;;;;74.72;34.90;;;;;;;23.88;61.55;98391.81;4949811;28;20648;-68
2023/04/14 00:14:27;;;;;;;81.18;35.63;;;;;;;23.86;61.58;98390.47;4964062;28;20050;-70
2023/04/14 00:16:57;;;;;;;83.05;38.10;;;;;;;23.83;61.69;98389.16;4965140;28;20051;-65
2023/04/14 00:19:26;;;;;;;73.13;35.00;;;;;;;23.77;62.09;98392.19;4945282;28;20051;-69
2023/04/14 00:21:56;;;;;;;84.28;37.17;;;;;;;23.69;62.42;98396.34;4966076;28;20086;-66
2023/04/14 00:24:25;;;;;;;70.63;36.53;;;;;;;23.62;62.10;98395.88;4961719;28;20626;-66
2023/04/14 00:26:55;;;;;;;82.97;38.75;;;;;;;23.56;62.07;98399.69;4956527;28;20043;-65
2023/04/14 00:29:25;;;;;;;86.40;37.85;;;;;;;23.54;62.10;98393.78;4958814;28;20069;-68
2023/04/14 00:31:54;;;;;;;86.53;39.22;;;;;;;23.48;62.13;98403.81;4958033;28;20035;-65
2023/04/14 00:34:23;;;;;;;80.05;36.53;;;;;;;23.47;62.87;98406.81;4966253;28;20090;-69
2023/04/14 00:36:53;;;;;;;86.97;38.75;;;;;;;23.43;63.35;98401.13;4960649;28;20069;-69
2023/04/14 00:39:22;;;;;;;83.72;37.03;;;;;;;23.44;63.56;98412.78;4963149;28;20097;-65
2023/04/14 00:41:51;;;;;;;74.90;36.22;;;;;;;23.44;64.10;98416.28;4949471;28;20541;-65
2023/04/14 00:44:22;;;;;;;78.70;34.92;;;;;;;23.42;64.28;98412.22;4948384;28;20134;-67
2023/04/14 00:46:51;;;;;;;86.53;34.67;;;;;;;23.43;64.30;98421.94;4964363;28;20743;-68
2023/04/14 00:49:21;;;;;;;69.95;34.40;;;;;;;23.40;63.78;98420.63;4966297;28;20061;-65
2023/04/14 00:51:51;;;;;;;79.85;34.63;;;;;;;23.42;63.64;98425.72;4962680;28;20062;-65
2023/04/14 00:54:21;;;;;;;74.15;35.70;;;;;;;23.41;63.90;98424.91;4946949;28;20101;-63
2023/04/14 00:56:52;;;;;;;87.93;36.38;;;;;;;23.43;63.90;98424.66;4954069;28;20074;-68
2023/04/14 00:59:22;;;;;;;78.90;36.38;;;;;;;23.42;63.79;98426.53;4960312;28;20853;-68
2023/04/14 01:01:52;;;;;;;75.53;37.42;;;;;;;23.43;64.18;98428.16;4962681;28;20145;-66
2023/04/14 01:04:22;;;;;;;85.20;38.95;;;;;;;23.47;63.70;98436.53;4949552;28;20718;-64
2023/04/14 01:07:04;;;;;;;89.03;40.65;;;;;;;23.45;nan;98439.53;4959090;28;20066;-64
2023/04/14 01:09:33;;;;;;;86.82;40.40;;;;;;;23.47;63.67;98444.66;4965084;28;20051;-66
2023/04/14 01:12:23;;;;;;;87.80;42.80;;;;;;;23.48;63.40;98447.06;4964958;28;20723;-70
2023/04/14 01:15:08;;;;;;;78.50;40.05;;;;;;;23.51;63.13;98443.00;4954621;28;20376;-67
2023/04/14 01:17:56;;;;;;;83.93;42.05;;;;;;;23.54;63.38;98447.84;4948616;28;20585;-66
2023/04/14 01:20:34;;;;;;;85.43;40.97;;;;;;;23.57;63.27;98453.50;4929319;28;20043;-65
2023/04/14 01:23:15;;;;;;;83.10;41.78;;;;;;;23.65;63.13;98458.28;4963230;28;20047;-66
2023/04/14 01:25:47;;;;;;;87.57;42.15;;;;;;;23.70;63.30;98458.25;4948360;28;20140;-68
2023/04/14 01:28:24;;;;;;;73.53;40.67;;;;;;;23.75;63.77;98459.31;4964569;28;20145;-67
2023/04/14 01:31:23;;;;;;;84.65;40.70;;;;;;;23.82;63.85;98471.41;4948509;28;20051;-67
2023/04/14 01:34:21;;;;;;;80.68;40.70;;;;;;;23.88;64.24;98464.84;4965810;28;20050;-65
2023/04/14 01:37:15;;;;;;;79.47;40.70;;;;;;;23.98;64.04;98469.38;4964590;28;20660;-70
2023/04/14 01:39:55;;;;;;;91.30;41.70;;;;;;;24.05;64.27;98472.53;4948145;28;20054;-68
2023/04/14 01:42:30;;;;;;;85.38;41.15;;;;;;;24.11;64.26;98472.22;4965582;28;20640;-69
2023/04/14 01:45:05;;;;;;;88.13;42.72;;;;;;;24.17;63.43;98475.69;4948872;28;20047;-68
2023/04/14 01:47:45;;;;;;;88.10;45.17;;;;;;;24.23;63.62;98481.88;5053639;27;20984;-65
2023/04/14 01:50:17;;;;;;;88.93;44.00;;;;;;;24.35;63.45;98480.38;5039813;28;20124;-63
2023/04/14 01:52:51;;;;;;;84.55;44.72;;;;;;;24.47;63.44;98482.72;5041081;28;20037;-65
2023/04/14 01:55:25;;;;;;;93.28;44.65;;;;;;;24.55;63.64;98491.00;5040899;28;20087;-65
2023/04/14 01:57:57;;;;;;;86.10;45.60;;;;;;;24.62;62.83;98485.22;5039944;28;20644;-64
2023/04/14 02:00:34;;;;;;;105.53;48.85;;;;;;;24.77;62.02;98490.47;5032306;28;20386;-64
2023/04/14 02:03:06;;;;;;;94.65;47.83;;;;;;;24.89;61.08;98499.00;5040525;28;20049;-66
2023/04/14 02:05:38;;;;;;;104.03;48.65;;;;;;;25.02;61.61;98495.59;5021254;28;20050;-61
2023/04/14 02:08:12;;;;;;;105.13;52.95;;;;;;;25.17;61.88;98491.06;5021545;28;20053;-64
2023/04/14 02:10:45;;;;;;;104.07;53.85;;;;;;;25.31;61.27;98497.38;5019814;28;20050;-65
2023/04/14 02:13:18;;;;;;;116.95;56.10;;;;;;;25.55;59.08;98498.13;5032559;28;20160;-65
2023/04/14 02:15:50;;;;;;;100.03;57.20;;;;;;;26.01;58.89;98502.81;5040734;28;20045;-63
2023/04/14 02:18:22;;;;;;;110.38;55.67;;;;;;;26.69;55.73;98509.16;5038435;28;20528;-64
2023/04/14 02:20:55;;;;;;;120.85;56.60;;;;;;;27.23;55.59;98502.09;5039295;28;20053;-64
2023/04/14 02:23:25;;;;;;;114.15;58.22;;;;;;;27.58;53.68;98501.31;5039263;28;20057;-66
2023/04/14 02:26:10;;;;;;;124.50;57.63;;;;;;;28.09;52.94;98500.88;5040325;28;20041;-66
2023/04/14 02:28:48;;;;;;;115.20;56.30;;;;;;;28.22;52.72;98507.38;5039435;28;20057;-66
2023/04/14 02:31:22;;;;;;;115.38;55.97;;;;;;;28.29;53.27;98502.28;5039760;28;20057;-65
2023/04/14 02:33:54;;;;;;;110.47;56.33;;;;;;;28.59;53.22;98506.09;5039106;28;20059;-63
2023/04/14 02:36:34;;;;;;;112.28;56.67;;;;;;;28.71;53.32;98517.25;5036520;28;20567;-65
2023/04/14 02:39:11;;;;;;;115.72;58.80;;;;;;;28.74;51.76;98515.81;5038333;28;20044;-63
2023/04/14 02:41:44;;;;;;;108.65;57.80;;;;;;;28.92;51.62;98517.47;5039552;28;20056;-66
2023/04/14 02:44:21;;;;;;;132.98;63.50;;;;;;;28.74;51.82;98522.06;5036838;28;20144;-65
2023/04/14 02:47:12;;;;;;;128.68;62.63;;;;;;;28.76;52.58;98528.03;5036798;28;20681;-64
2023/04/14 02:49:48;;;;;;;105.60;59.72;;;;;;;28.77;52.04;98521.44;5037563;28;20037;-65
2023/04/14 02:52:23;;;;;;;122.28;60.35;;;;;;;28.69;53.11;98529.53;5035506;28;20152;-65
2023/04/14 02:54:56;;;;;;;109.43;50.50;;;;;;;28.49;50.75;98520.81;5036235;28;20064;-64
2023/04/14 02:57:28;;;;;;;97.25;46.83;;;;;;;28.36;51.79;98526.38;5034411;28;20156;-65
2023/04/14 02:59:59;;;;;;;90.20;43.33;;;;;;;28.30;49.83;98527.59;5025553;28;20305;-67
2023/04/14 03:02:32;;;;;;;82.03;40.00;;;;;;;28.24;50.25;98537.81;5033486;28;20049;-64
2023/04/14 03:05:07;;;;;;;75.97;38.78;;;;;;;28.16;50.25;98532.31;5019247;28;20111;-63
2023/04/14 03:07:51;;;;;;;70.35;37.13;;;;;;;28.11;50.85;98531.34;5025536;28;20056;-64
2023/04/14 03:10:24;;;;;;;88.03;39.88;;;;;;;28.09;50.57;98539.00;5009697;28;20050;-64
2023/04/14 03:12:55;;;;;;;86.05;38.58;;;;;;;28.07;50.85;98538.50;5024501;28;20049;-64
2023/04/14 03:15:27;;;;;;;79.10;37.38;;;;;;;28.09;49.15;98533.56;5024494;28;20120;-65
2023/04/14 03:17:57;;;;;;;88.53;37.10;;;;;;;28.13;49.22;98531.03;5024629;28;20045;-63
2023/04/14 03:20:29;;;;;;;82.32;38.35;;;;;;;28.14;46.56;98535.38;5016619;28;20050;-63
2023/04/14 03:23:06;;;;;;;81.97;38.38;;;;;;;28.26;48.00;98537.53;5026757;28;20050;-62
2023/04/14 03:25:42;;;;;;;;;;;;;;;28.35;47.60;98532.94;5026319;28;20049;-65
2023/04/14 03:28:21;;;;;;;75.55;36.67;;;;;;;28.39;46.65;98540.16;5025324;28;19952;-64
2023/04/14 03:30:53;;;;;;;74.82;33.42;;;;;;;28.44;45.27;98536.50;5023186;28;20042;-64
2023/04/14 03:33:27;;;;;;;65.35;27.45;;;;;;;28.51;44.90;98545.03;5019905;28;20054;-64
2023/04/14 03:36:00;;;;;;;49.28;25.45;;;;;;;28.52;44.28;98539.25;5028618;28;20045;-64
2023/04/14 03:38:32;;;;;;;55.78;22.63;;;;;;;28.58;42.97;98548.94;5011491;28;20046;-65
2023/04/14 03:41:06;;;;;;;49.47;22.20;;;;;;;28.64;44.32;98554.22;5023944;28;20053;-63
2023/04/14 03:43:36;;;;;;;42.72;19.58;;;;;;;28.68;43.66;98556.00;5025627;28;20049;-64
2023/04/14 03:46:10;;;;;;;42.42;19.38;;;;;;;28.71;44.13;98557.34;5024816;28;20045;-64
2023/04/14 03:48:43;;;;;;;38.10;17.55;;;;;;;28.73;44.10;98564.06;5024653;28;20049;-64
2023/04/14 03:51:16;;;;;;;39.75;16.45;;;;;;;28.79;42.80;98560.09;5024083;28;20405;-65
2023/04/14 03:53:47;;;;;;;37.78;15.75;;;;;;;28.97;43.59;98564.50;5026787;28;20061;-66
2023/04/14 03:56:18;;;;;;;33.03;15.75;;;;;;;29.00;42.84;98558.41;5024081;28;20512;-64
2023/04/14 03:58:51;;;;;;;34.65;14.18;;;;;;;29.11;39.94;98567.13;5025880;28;20055;-65
2023/04/14 04:01:24;;;;;;;39.42;13.15;;;;;;;29.21;39.41;98571.47;5024422;28;20060;-64
2023/04/14 04:03:57;;;;;;;37.05;10.02;;;;;;;29.32;37.56;98568.16;5024558;28;20053;-65
2023/04/14 04:06:27;;;;;;;32.47;9.95;;;;;;;29.45;38.55;98564.47;5025713;28;20045;-65
2023/04/14 04:08:58;;;;;;;25.60;9.00;;;;;;;29.61;37.02;98562.06;5022983;28;20049;-64
2023/04/14 04:11:29;;;;;;;20.95;8.40;;;;;;;29.74;38.27;98565.78;5022982;28;20042;-63
2023/04/14 04:14:02;;;;;;;22.33;9.35;;;;;;;29.87;34.93;98570.28;5025084;28;20418;-63
2023/04/14 04:16:36;;;;;;;30.33;8.57;;;;;;;30.16;34.78;98564.97;5016143;28;20049;-63
2023/04/14 04:19:06;;;;;;;21.98;8.00;;;;;;;29.92;39.12;98577.56;5024437;28;20107;-61
2023/04/14 04:21:39;;;;;;;21.25;7.28;;;;;;;29.46;40.41;98570.75;5010614;28;20156;-60
2023/04/14 04:24:12;;;;;;;22.35;8.13;;;;;;;29.24;41.08;98576.28;5027742;28;20153;-62
2023/04/14 04:26:42;;;;;;;25.92;8.20;;;;;;;29.13;42.10;98574.97;5019827;28;20123;-66
2023/04/14 04:29:12;;;;;;;21.27;8.05;;;;;;;29.09;41.91;98572.06;5056714;28;20061;-60
2023/04/14 04:31:42;;;;;;;28.00;8.23;;;;;;;29.28;41.36;98577.25;5007570;28;20444;-61
2023/04/14 04:34:13;;;;;;;23.02;7.78;;;;;;;29.34;41.77;98586.94;5023457;28;20053;-61
2023/04/14 04:36:44;;;;;;;19.58;7.88;;;;;;;29.30;42.04;98586.75;5018840;28;20049;-61
2023/04/14 04:39:14;;;;;;;21.48;7.57;;;;;;;29.39;43.21;98579.38;5022738;28;20060;-63
2023/04/14 04:41:44;;;;;;;16.95;7.90;;;;;;;29.97;39.68;98580.91;5022988;28;20061;-59
2023/04/14 04:44:14;;;;;;;22.83;7.50;;;;;;;30.27;40.27;98579.91;5022988;28;20152;-60
2023/04/14 04:46:54;;;;;;;21.85;8.25;;;;;;;30.46;37.91;98584.22;5024439;28;20144;-59
2023/04/14 04:49:26;;;;;;;24.90;6.85;;;;;;;30.78;37.00;98586.38;5023285;28;20053;-61
2023/04/14 04:52:01;;;;;;;21.52;6.35;;;;;;;31.05;36.10;98586.00;5023692;28;20897;-60
2023/04/14 04:54:30;;;;;;;21.75;5.72;;;;;;;31.16;38.22;98581.72;5023363;28;20045;-60
2023/04/14 04:57:00;;;;;;;32.63;7.25;;;;;;;31.30;37.13;98586.16;5021071;28;20045;-60
2023/04/14 04:59:29;;;;;;;13.98;6.00;;;;;;;31.47;38.94;98584.13;5024314;28;20826;-64
2023/04/14 05:01:59;;;;;;;19.05;6.22;;;;;;;31.57;38.56;98588.44;5023090;28;20087;-62
2023/04/14 05:04:29;;;;;;;25.85;6.53;;;;;;;31.63;35.38;98576.97;5023236;28;20775;-61
2023/04/14 05:06:58;;;;;;;21.58;6.65;;;;;;;31.87;36.25;98575.47;5023469;28;20060;-61
2023/04/14 05:09:27;;;;;;;26.63;7.18;;;;;;;32.20;35.90;98572.81;5023286;28;20131;-61
2023/04/14 05:11:57;;;;;;;17.60;6.60;;;;;;;32.27;36.92;98568.38;5028152;28;20449;-62
2023/04/14 05:14:27;;;;;;;23.75;6.30;;;;;;;32.58;34.36;98565.13;5030503;28;20045;-62
2023/04/14 05:16:56;;;;;;;18.92;6.43;;;;;;;32.70;35.54;98570.69;5030641;28;20599;-63
2023/04/14 05:19:26;;;;;;;18.10;6.30;;;;;;;32.79;34.99;98567.84;5022744;28;20505;-68
2023/04/14 05:21:56;;;;;;;19.35;7.10;;;;;;;33.19;33.64;98570.72;5028731;28;20052;-64
2023/04/14 05:24:26;;;;;;;24.45;6.65;;;;;;;33.12;33.78;98570.44;5032030;28;20574;-61
2023/04/14 05:26:56;;;;;;;23.67;6.40;;;;;;;33.47;33.09;98568.84;5034958;28;20122;-61
2023/04/14 05:29:41;;;;;;;23.90;6.88;;;;;;;33.55;33.23;98567.91;5024978;28;20060;-60
2023/04/14 05:32:11;;;;;;;19.48;5.93;;;;;;;33.65;33.41;98567.44;5019001;28;20046;-61
2023/04/14 05:34:41;;;;;;;24.77;6.22;;;;;;;33.50;33.07;98565.44;5023069;28;20046;-61
2023/04/14 05:37:11;;;;;;;20.33;6.68;;;;;;;33.55;33.28;98562.41;5022749;28;20077;-58
2023/04/14 05:39:40;;;;;;;14.30;5.63;;;;;;;33.50;34.01;98568.16;5023152;28;20618;-60
2023/04/14 05:42:10;;;;;;;15.30;6.50;;;;;;;33.53;33.50;98570.22;5021163;28;20063;-62
2023/04/14 05:44:40;;;;;;;17.70;5.82;;;;;;;33.73;32.75;98562.97;5020304;28;20144;-59
2023/04/14 05:47:10;;;;;;;28.77;6.38;;;;;;;33.71;34.37;98568.84;5021124;28;20047;-63
2023/04/14 05:49:39;;;;;;;23.75;6.60;;;;;;;33.66;32.20;98560.03;5019154;28;20152;-61
2023/04/14 05:52:09;;;;;;;24.55;6.20;;;;;;;33.81;31.10;98560.06;5021881;28;20049;-61
2023/04/14 05:54:39;;;;;;;25.30;6.22;;;;;;;33.82;32.92;98555.38;5021015;28;20038;-62
2023/04/14 05:57:11;;;;;;;23.40;6.50;;;;;;;34.27;31.27;98549.59;5005414;28;20060;-63
2023/04/14 05:59:42;;;;;;;14.75;6.15;;;;;;;34.49;30.85;98550.97;5016746;28;20053;-63
2023/04/14 06:02:12;;;;;;;20.10;5.82;;;;;;;34.57;29.80;98547.25;5020464;28;20108;-63
2023/04/14 06:04:42;;;;;;;16.42;6.32;;;;;;;34.57;33.48;98539.78;5021298;28;20053;-63
2023/04/14 06:07:11;;;;;;;17.13;5.55;;;;;;;34.82;29.88;98553.41;5045573;28;20121;-63
2023/04/14 06:09:45;;;;;;;24.77;5.72;;;;;;;34.87;24.04;98539.38;5003609;28;20504;-65
2023/04/14 06:12:15;;;;;;;23.08;6.72;;;;;;;35.14;27.08;98538.47;5017500;28;20053;-61
2023/04/14 06:14:44;;;;;;;15.52;6.85;;;;;;;35.22;29.51;98536.69;5021351;28;20053;-61
2023/04/14 06:17:13;;;;;;;17.25;5.75;;;;;;;35.11;29.03;98533.66;5017303;28;20153;-62
2023/04/14 06:19:43;;;;;;;19.90;5.50;;;;;;;34.99;31.17;98531.81;5020093;28;20037;-64
2023/04/14 06:22:15;;;;;;;15.32;5.88;;;;;;;34.98;32.97;98532.97;5021287;28;20449;-60
2023/04/14 06:24:46;;;;;;;20.10;6.18;;;;;;;34.92;32.69;98522.59;5017979;28;20092;-60
2023/04/14 06:27:17;;;;;;;22.02;5.82;;;;;;;35.25;26.06;98522.19;5017053;28;20045;-60
2023/04/14 06:29:46;;;;;;;19.48;6.05;;;;;;;35.48;25.48;98518.41;5014192;28;20056;-63
2023/04/14 06:32:16;;;;;;;19.05;5.25;;;;;;;35.45;29.93;98521.09;4692585;28;10000524;-63
2023/04/14 06:34:49;;;;;;;20.35;5.93;;;;;;;35.51;27.19;98514.91;5023979;28;20089;-63
2023/04/14 06:37:21;;;;;;;17.40;4.80;;;;;;;35.78;29.09;98512.34;5024001;28;20049;-63
2023/04/14 06:39:50;;;;;;;18.85;5.05;;;;;;;35.77;28.33;98505.22;5025534;28;20044;-64
2023/04/14 06:42:20;;;;;;;16.40;4.40;;;;;;;35.76;26.31;98509.94;5025579;28;20052;-63
2023/04/14 06:44:49;;;;;;;20.73;5.15;;;;;;;35.48;26.42;98501.88;5023684;28;20140;-64
2023/04/14 06:47:20;;;;;;;14.27;4.65;;;;;;;35.36;29.80;98501.97;5023851;28;20037;-62
2023/04/14 06:49:50;;;;;;;18.95;4.35;;;;;;;35.31;27.25;98495.97;5026151;28;20049;-66
2023/04/14 06:52:19;;;;;;;18.80;4.63;;;;;;;35.54;28.26;98496.84;5024813;28;20050;-63
2023/04/14 06:54:49;;;;;;;19.98;6.07;;;;;;;35.85;24.67;98490.44;5022668;28;20050;-65
2023/04/14 06:57:18;;;;;;;17.83;4.45;;;;;;;36.04;27.05;98488.44;5023970;28;20486;-63
2023/04/14 06:59:48;;;;;;;21.23;4.93;;;;;;;35.92;25.05;98487.81;5025981;28;20045;-65
2023/04/14 07:02:17;;;;;;;18.35;5.05;;;;;;;35.87;23.42;98485.34;5022679;28;20045;-63
2023/04/14 07:04:46;;;;;;;29.13;7.03;;;;;;;35.90;26.58;98484.59;5025794;28;20440;-64
2023/04/14 07:07:17;;;;;;;17.33;4.88;;;;;;;36.05;24.34;98478.22;5025126;28;20140;-65
2023/04/14 07:09:46;;;;;;;16.98;4.50;;;;;;;35.95;22.82;98473.28;5025950;28;20053;-63
2023/04/14 07:12:17;;;;;;;18.90;4.07;;;;;;;35.97;26.01;98473.75;5025102;28;20060;-67
2023/04/14 07:14:50;;;;;;;23.33;4.72;;;;;;;36.08;24.97;98460.94;5023278;28;20050;-66
2023/04/14 07:17:20;;;;;;;17.27;4.03;;;;;;;36.03;25.46;98466.75;5024595;28;20068;-66
2023/04/14 07:19:49;;;;;;;10.40;3.90;;;;;;;35.75;23.53;98455.19;5025731;28;20769;-65
2023/04/14 07:22:19;;;;;;;17.67;4.53;;;;;;;35.65;23.30;98450.25;5025288;28;20248;-69
2023/04/14 07:24:49;;;;;;;15.95;4.18;;;;;;;35.82;22.51;98455.31;5025255;28;20103;-65
2023/04/14 07:27:19;;;;;;;17.02;4.00;;;;;;;36.10;22.61;98444.81;5024883;28;20567;-61
2023/04/14 07:29:49;;;;;;;14.43;4.35;;;;;;;35.95;25.16;98445.72;5026731;28;20094;-61
2023/04/14 07:32:19;;;;;;;24.90;4.43;;;;;;;35.90;21.00;98438.53;5024667;28;20586;-62
2023/04/14 07:34:50;;;;;;;22.98;4.22;;;;;;;35.79;25.58;98445.84;5025415;28;20897;-61
2023/04/14 07:37:20;;;;;;;12.30;3.58;;;;;;;35.87;20.57;98449.50;5024223;28;20053;-62
2023/04/14 07:39:50;;;;;;;11.82;3.00;;;;;;;35.75;24.61;98431.19;5022660;28;20077;-63
2023/04/14 07:42:19;;;;;;;27.17;4.47;;;;;;;35.52;21.36;98433.84;5023771;28;20060;-60
2023/04/14 07:44:48;;;;;;;11.93;4.03;;;;;;;35.74;22.67;98428.78;5022821;28;20050;-63
2023/04/14 07:47:18;;;;;;;14.77;5.07;;;;;;;35.72;24.69;98417.31;5021985;28;20733;-63
2023/04/14 07:49:47;;;;;;;21.45;4.53;;;;;;;35.44;24.25;98415.59;5013872;28;20516;-62
2023/04/14 07:52:17;;;;;;;14.55;4.28;;;;;;;35.29;23.81;98410.94;5023730;28;20144;-63
2023/04/14 07:54:46;;;;;;;13.85;4.10;;;;;;;35.21;26.13;98411.97;5027650;28;20136;-62
2023/04/14 07:57:16;;;;;;;14.05;3.90;;;;;;;35.15;26.38;98413.38;5027307;28;20073;-64
2023/04/14 07:59:47;;;;;;;18.77;4.88;;;;;;;34.83;27.64;98406.41;5028353;28;20165;-62
2023/04/14 08:02:16;;;;;;;9.38;4.03;;;;;;;34.64;26.38;98405.16;5031169;28;20151;-61
2023/04/14 08:04:46;;;;;;;10.05;4.50;;;;;;;34.58;24.66;98395.56;5026221;28;20144;-63
2023/04/14 08:07:16;;;;;;;22.98;4.20;;;;;;;34.80;25.68;98391.38;5024333;28;20073;-62
2023/04/14 08:09:48;;;;;;;12.73;3.70;;;;;;;34.77;24.49;98394.06;5025253;28;20053;-62
2023/04/14 08:12:17;;;;;;;11.20;3.45;;;;;;;34.98;24.54;98389.81;5026892;28;20048;-62
2023/04/14 08:14:47;;;;;;;13.38;4.50;;;;;;;35.03;23.06;98380.47;5021862;28;20885;-62
2023/04/14 08:17:16;;;;;;;14.40;3.60;;;;;;;34.91;23.09;98386.94;5023707;28;20100;-65
2023/04/14 08:19:46;;;;;;;13.93;4.20;;;;;;;34.92;26.41;98379.47;5022800;28;20127;-62
2023/04/14 08:22:17;;;;;;;18.67;4.65;;;;;;;34.60;26.79;98381.47;5017657;28;20065;-61
2023/04/14 08:24:47;;;;;;;11.15;3.80;;;;;;;34.57;26.76;98371.97;5024376;28;20045;-62
2023/04/14 08:27:17;;;;;;;19.08;4.60;;;;;;;34.83;22.41;98362.34;5022226;28;20638;-62
2023/04/14 08:29:46;;;;;;;12.00;4.40;;;;;;;35.04;22.88;98360.06;5020022;28;20072;-60
2023/04/14 08:32:15;;;;;;;16.52;5.13;;;;;;;34.95;24.53;98349.25;5024150;28;20734;-60
2023/04/14 08:34:45;;;;;;;14.98;3.95;;;;;;;34.72;23.61;98348.34;5023813;28;20053;-61
2023/04/14 08:37:35;;;;;;;15.02;4.60;;;;;;;35.37;21.60;98343.03;5018385;28;20104;-60
2023/04/14 08:40:09;;;;;;;15.98;3.88;;;;;;;35.52;21.31;98336.63;5022954;28;20045;-60
2023/04/14 08:42:38;;;;;;;15.75;4.50;;;;;;;35.47;25.88;98337.72;5023746;28;20057;-58
2023/04/14 08:45:08;;;;;;;12.88;4.10;;;;;;;35.34;25.15;98335.50;5022420;28;20053;-60
2023/04/14 08:47:40;;;;;;;21.40;5.00;;;;;;;35.02;26.13;98338.38;5023850;28;20045;-58
2023/04/14 08:50:15;;;;;;;28.02;6.22;;;;;;;35.29;22.42;98325.56;5024195;28;20049;-58
2023/04/14 08:52:46;;;;;;;13.02;3.95;;;;;;;35.26;22.89;98323.56;5024487;28;20050;-60
2023/04/14 08:55:18;;;;;;;20.88;5.75;;;;;;;35.11;22.80;98314.19;5022805;28;20079;-60
2023/04/14 08:57:49;;;;;;;15.43;4.85;;;;;;;34.99;19.21;98300.56;5023103;28;20044;-61
2023/04/14 09:00:19;;;;;;;13.80;4.43;;;;;;;34.98;21.10;98303.69;5023598;28;20119;-60
2023/04/14 09:02:50;;;;;;;15.68;4.35;;;;;;;34.85;25.44;98308.53;5018318;28;20049;-61
2023/04/14 09:05:21;;;;;;;13.77;4.15;;;;;;;34.74;25.59;98295.72;5026897;28;20041;-61
2023/04/14 09:07:51;;;;;;;14.88;4.07;;;;;;;34.60;26.73;98293.44;5023258;28;20692;-60
2023/04/14 09:10:22;;;;;;;16.98;4.43;;;;;;;34.62;21.77;98280.09;5027992;28;20064;-60
2023/04/14 09:12:53;;;;;;;11.43;3.50;;;;;;;34.60;24.67;98276.94;5029196;28;20041;-60
2023/04/14 09:15:27;;;;;;;13.77;4.03;;;;;;;35.11;19.46;98281.13;5022137;28;20049;-60
2023/04/14 09:17:57;;;;;;;18.90;4.00;;;;;;;35.18;23.76;98275.00;5020958;28;20444;-64
2023/04/14 09:20:27;;;;;;;20.80;4.05;;;;;;;35.28;20.26;98271.63;5024963;28;20083;-60
2023/04/14 09:23:08;;;;;;;17.45;4.07;;;;;;;35.17;20.90;98272.63;5028457;28;20083;-59
2023/04/14 09:25:39;;;;;;;21.67;4.38;;;;;;;35.02;22.58;98266.81;5027367;28;20681;-61
2023/04/14 09:28:09;;;;;;;13.68;4.10;;;;;;;34.68;24.30;98254.72;5022535;28;20041;-61
2023/04/14 09:30:40;;;;;;;15.70;3.83;;;;;;;34.52;24.00;98253.94;5019610;28;20042;-61
2023/04/14 09:33:23;;;;;;;17.90;3.38;;;;;;;34.22;25.55;98250.16;5021967;28;20164;-62
2023/04/14 09:35:52;;;;;;;15.63;3.58;;;;;;;34.04;25.28;98246.97;5021660;28;20045;-62
2023/04/14 09:38:36;;;;;;;10.77;3.67;;;;;;;33.92;25.34;98249.03;5022177;28;20061;-62
2023/04/14 09:41:06;;;;;;;10.93;3.35;;;;;;;33.86;25.42;98239.47;5019874;28;20046;-62
2023/04/14 09:43:36;;;;;;;13.40;3.80;;;;;;;33.70;25.82;98240.28;5022142;28;20396;-63
2023/04/14 09:46:08;;;;;;;9.02;3.63;;;;;;;33.57;23.61;98237.94;5021152;28;20412;-63
2023/04/14 09:48:59;;;;;;;12.50;3.40;;;;;;;33.49;22.87;98231.50;5022003;28;20046;-63
2023/04/14 09:51:31;;;;;;;14.75;3.20;;;;;;;33.56;22.57;98234.41;5021829;28;20148;-64
2023/04/14 09:54:03;;;;;;;14.38;3.55;;;;;;;33.33;23.40;98230.66;5020379;28;20475;-61
2023/04/14 09:56:33;;;;;;;14.77;3.20;;;;;;;33.24;25.34;98219.88;5020590;28;20053;-61
2023/04/14 09:59:03;;;;;;;7.80;3.40;;;;;;;33.28;22.95;98219.97;5020213;28;20459;-61
2023/04/14 10:01:33;;;;;;;13.85;3.42;;;;;;;33.59;23.06;98208.19;5021797;28;20057;-63
2023/04/14 10:04:03;;;;;;;11.48;3.50;;;;;;;33.28;25.31;98204.28;5021304;28;20041;-61
2023/04/14 10:06:32;;;;;;;18.58;3.58;;;;;;;33.11;26.19;98210.06;5022699;28;20132;-60
2023/04/14 10:09:02;;;;;;;15.45;3.53;;;;;;;33.04;26.21;98198.13;5025752;28;20713;-61
2023/04/14 10:11:32;;;;;;;9.82;3.17;;;;;;;32.93;26.97;98195.88;5026585;28;20067;-62
2023/04/14 10:14:04;;;;;;;13.32;3.17;;;;;;;32.76;25.81;98187.97;5027055;28;20047;-60
2023/04/14 10:16:34;;;;;;;14.15;3.75;;;;;;;32.69;25.83;98192.47;5026949;28;20150;-61
2023/04/14 10:19:04;;;;;;;16.08;3.15;;;;;;;32.61;26.36;98185.19;5026861;28;20064;-62
2023/04/14 10:21:34;;;;;;;11.93;3.47;;;;;;;32.60;27.20;98186.31;5027909;28;20053;-61
2023/04/14 10:24:04;;;;;;;21.52;3.40;;;;;;;32.51;27.97;98179.03;5026725;28;20435;-63
2023/04/14 10:26:35;;;;;;;11.07;3.45;;;;;;;32.79;23.59;98184.56;4993188;28;20049;-61
2023/04/14 10:29:05;;;;;;;14.70;3.90;;;;;;;32.89;25.86;98173.03;5027276;28;20045;-61
2023/04/14 10:31:44;;;;;;;12.68;3.38;;;;;;;32.72;26.18;98178.84;5027178;28;20058;-61
2023/04/14 10:34:17;;;;;;;9.23;3.17;;;;;;;32.60;25.09;98164.38;5025393;28;20183;-61
2023/04/14 10:36:47;;;;;;;14.07;3.35;;;;;;;32.71;26.09;98166.28;5025793;28;20045;-62
2023/04/14 10:39:24;;;;;;;16.52;3.78;;;;;;;32.68;26.66;98157.97;5024921;28;20084;-61
2023/04/14 10:41:55;;;;;;;16.50;3.35;;;;;;;32.57;25.10;98152.19;5025598;28;20469;-62
2023/04/14 10:44:25;;;;;;;9.68;3.63;;;;;;;32.73;23.85;98161.25;5023126;28;20484;-61
2023/04/14 10:46:56;;;;;;;14.57;3.63;;;;;;;32.95;20.71;98159.88;5023002;28;20056;-60
2023/04/14 10:49:31;;;;;;;13.70;3.22;;;;;;;33.02;25.43;98164.75;5026506;28;20045;-61
2023/04/14 10:52:03;;;;;;;9.63;3.50;;;;;;;32.98;24.40;98159.97;5017107;28;20088;-63
2023/04/14 10:54:53;;;;;;;11.65;3.45;;;;;;;32.96;25.36;98150.50;5025594;28;20164;-59
2023/04/14 10:57:27;;;;;;;18.13;3.85;;;;;;;32.93;25.53;98162.97;5022836;28;20061;-62
2023/04/14 10:59:58;;;;;;;22.02;3.70;;;;;;;32.93;23.85;98154.72;5031791;28;20056;-66
2023/04/14 11:02:30;;;;;;;11.63;3.35;;;;;;;32.93;23.72;98145.69;5066312;28;20044;-60
2023/04/14 11:05:04;;;;;;;;;;;;;;;32.81;25.95;98151.25;5060339;28;20143;-60
2023/04/14 11:07:44;;;;;;;14.68;3.42;;;;;;;32.73;25.44;98147.53;5063724;28;20389;-60
2023/04/14 11:10:16;;;;;;;11.93;3.53;;;;;;;32.69;26.10;98143.91;5064726;28;20052;-62
2023/04/14 11:12:59;;;;;;;11.55;3.83;;;;;;;32.65;25.04;98153.19;5063762;28;20066;-62
2023/04/14 11:15:47;;;;;;;;;;;;;;;32.49;26.47;98139.38;5065082;28;20067;-61
2023/04/14 11:18:19;;;;;;;14.20;3.35;;;;;;;32.38;26.15;98146.53;5057968;28;19924;-61
2023/04/14 11:20:52;;;;;;;19.00;4.85;;;;;;;32.37;26.14;98131.22;5066345;28;20056;-60
2023/04/14 11:23:27;;;;;;;16.95;4.15;;;;;;;32.29;24.29;98143.94;5059100;28;20585;-60
2023/04/14 11:25:57;;;;;;;16.83;3.38;;;;;;;32.32;27.24;98136.94;5066273;28;20220;-60
2023/04/14 11:28:37;;;;;;;16.27;3.53;;;;;;;32.22;25.69;98134.72;5065633;28;20044;-60
2023/04/14 11:31:09;;;;;;;13.50;3.55;;;;;;;32.33;22.74;98133.88;5065742;28;20675;-59
2023/04/14 11:33:40;;;;;;;12.70;3.65;;;;;;;32.57;24.88;98130.22;5066262;28;20069;-60
2023/04/14 11:36:11;;;;;;;12.65;2.92;;;;;;;32.45;26.28;98133.00;5051075;28;20411;-61
2023/04/14 11:38:42;;;;;;;11.57;3.45;;;;;;;32.39;25.10;98124.25;5065980;28;20053;-60
2023/04/14 11:41:15;;;;;;;18.05;3.13;;;;;;;32.28;25.25;98127.84;5065762;28;20293;-60
2023/04/14 11:43:47;;;;;;;8.45;3.03;;;;;;;32.14;25.97;98130.16;5050934;28;20078;-60
2023/04/14 11:46:23;;;;;;;12.63;4.00;;;;;;;32.14;25.06;98128.22;5063421;28;20057;-62